Time;durP1;ratioP1;P1;durP2;ratioP2;P2;SDS_P1;SDS_P2;PMS_P1;PMS_P2;Temp;Humidity;BMP_temperature;BMP_pressure;BME280_temperature;BME280_humidity;BME280_pressure;Samples;Min_cycle;Max_cycle;Signal;HPM_P1;HPM_P2
2023/03/19 00:01:47;;;;;;;2.75;2.55;;;;;;;;;;5119791;28;20199;-59
2023/03/19 00:04:15;;;;;;;3.15;2.88;;;;;;;;;;5120342;28;20206;-59
2023/03/19 00:06:43;;;;;;;3.65;2.90;;;;;;;;;;5119913;28;20488;-59
2023/03/19 00:09:10;;;;;;;2.88;2.67;;;;;;;;;;5119356;28;20195;-59
2023/03/19 00:11:38;;;;;;;2.75;2.55;;;;;;;;;;5119974;28;20213;-59
2023/03/19 00:14:06;;;;;;;3.67;3.38;;;;;;;;;;5119565;27;20206;-59
2023/03/19 00:16:35;;;;;;;2.90;2.60;;;;;;;;;;5131102;27;20249;-59
2023/03/19 00:19:04;;;;;;;2.90;2.50;;;;;;;;;;5120598;27;20238;-59
2023/03/19 00:21:32;;;;;;;3.08;2.88;;;;;;;;;;5125712;27;20198;-59
2023/03/19 00:24:01;;;;;;;2.92;2.72;;;;;;;;;;5140127;27;20523;-59
2023/03/19 00:26:29;;;;;;;3.03;2.60;;;;;;;;;;5140258;27;20503;-59
2023/03/19 00:28:58;;;;;;;2.92;2.63;;;;;;;;;;5127958;27;20202;-59
2023/03/19 00:31:26;;;;;;;2.88;2.67;;;;;;;;;;5138275;27;20198;-59
2023/03/19 00:33:53;;;;;;;2.80;2.60;;;;;;;;;;5132483;27;20632;-59
2023/03/19 00:36:24;;;;;;;2.97;2.70;;;;;;;;;;5119222;27;20254;-59
2023/03/19 00:38:51;;;;;;;2.80;2.60;;;;;;;;;;5135483;27;20191;-59
2023/03/19 00:41:19;;;;;;;3.30;3.00;;;;;;;;;;5139990;27;20206;-59
2023/03/19 00:43:47;;;;;;;2.80;2.60;;;;;;;;;;5139742;27;20277;-59
2023/03/19 00:46:15;;;;;;;3.00;2.80;;;;;;;;;;5138891;27;20577;-59
2023/03/19 00:48:42;;;;;;;2.50;2.30;;;;;;;;;;5119877;27;20195;-59
2023/03/19 00:51:11;;;;;;;3.17;2.88;;;;;;;;;;5118944;27;20203;-59
2023/03/19 00:53:41;;;;;;;2.78;2.58;;;;;;;;;;5119246;28;20211;-59
2023/03/19 00:56:09;;;;;;;2.83;2.60;;;;;;;;;;5132739;27;20676;-59
2023/03/19 00:58:37;;;;;;;2.75;2.55;;;;;;;;;;5124815;27;20203;-59
2023/03/19 01:01:05;;;;;;;2.70;2.50;;;;;;;;;;5118878;28;20203;-59
2023/03/19 01:03:33;;;;;;;2.53;2.33;;;;;;;;;;5130087;27;20214;-59
2023/03/19 01:06:00;;;;;;;3.20;2.90;;;;;;;;;;5127411;27;20206;-59
2023/03/19 01:08:28;;;;;;;3.15;2.92;;;;;;;;;;5132054;27;20459;-59
2023/03/19 01:10:58;;;;;;;2.75;2.55;;;;;;;;;;5122206;27;20199;-59
2023/03/19 01:13:26;;;;;;;2.55;2.35;;;;;;;;;;5119518;28;20225;-59
2023/03/19 01:15:53;;;;;;;2.90;2.70;;;;;;;;;;5119018;28;20273;-59
2023/03/19 01:18:21;;;;;;;2.95;2.75;;;;;;;;;;5130573;27;20245;-59
2023/03/19 01:20:49;;;;;;;2.80;2.60;;;;;;;;;;5137376;27;20229;-60
2023/03/19 01:23:18;;;;;;;3.00;2.80;;;;;;;;;;5138377;27;20245;-60
2023/03/19 01:25:46;;;;;;;2.70;2.50;;;;;;;;;;5135571;27;20202;-60
2023/03/19 01:28:15;;;;;;;2.80;2.60;;;;;;;;;;5128159;27;20187;-59
2023/03/19 01:30:43;;;;;;;2.47;2.28;;;;;;;;;;5118605;28;20202;-59
2023/03/19 01:33:11;;;;;;;2.70;2.50;;;;;;;;;;5118351;28;20207;-59
2023/03/19 01:35:38;;;;;;;3.03;2.78;;;;;;;;;;5122297;27;20629;-59
2023/03/19 01:38:06;;;;;;;2.83;2.63;;;;;;;;;;5129587;27;20195;-59
2023/03/19 01:40:34;;;;;;;2.90;2.70;;;;;;;;;;5121680;27;20202;-59
2023/03/19 01:43:13;;;;;;;2.70;2.50;;;;;;;;;;5138797;27;20210;-59
2023/03/19 01:45:44;;;;;;;3.03;2.80;;;;;;;;;;5138843;27;20198;-59
2023/03/19 01:48:17;;;;;;;3.17;2.97;;;;;;;;;;5128470;27;20201;-59
2023/03/19 01:50:46;;;;;;;2.92;2.72;;;;;;;;;;5118094;28;20207;-59
2023/03/19 01:53:15;;;;;;;2.78;2.58;;;;;;;;;;5134875;27;20198;-59
2023/03/19 01:55:42;;;;;;;3.20;2.90;;;;;;;;;;5137047;27;20222;-59
2023/03/19 01:58:10;;;;;;;2.80;2.60;;;;;;;;;;5118511;27;20199;-59
2023/03/19 02:00:39;;;;;;;3.22;2.92;;;;;;;;;;5118444;28;20202;-59
2023/03/19 02:03:08;;;;;;;3.05;2.85;;;;;;;;;;5117983;28;20344;-59
2023/03/19 02:05:36;;;;;;;3.22;2.92;;;;;;;;;;5118401;28;20760;-59
2023/03/19 02:08:06;;;;;;;2.83;2.63;;;;;;;;;;5118532;28;20509;-59
2023/03/19 02:10:34;;;;;;;2.88;2.67;;;;;;;;;;5118294;28;20203;-59
2023/03/19 02:13:02;;;;;;;2.80;2.60;;;;;;;;;;5117908;28;20206;-59
2023/03/19 02:15:30;;;;;;;3.17;2.92;;;;;;;;;;5117302;28;20223;-59
2023/03/19 02:20:56;;;;;;;2.72;2.53;;;;;;;;;;5085926;26;20541;-58
2023/03/19 02:23:27;;;;;;;3.15;2.85;;;;;;;;;;5097549;28;20203;-58
2023/03/19 02:26:01;;;;;;;2.90;2.70;;;;;;;;;;5097608;28;20272;-58
2023/03/19 02:28:29;;;;;;;3.17;2.97;;;;;;;;;;5097555;28;20213;-58
2023/03/19 02:30:57;;;;;;;3.00;2.80;;;;;;;;;;5097444;28;20250;-58
2023/03/19 02:33:24;;;;;;;2.90;2.70;;;;;;;;;;5097193;28;20594;-59
2023/03/19 02:35:53;;;;;;;2.97;2.78;;;;;;;;;;5097296;28;20506;-59
2023/03/19 02:38:21;;;;;;;3.00;2.80;;;;;;;;;;5097405;28;20203;-59
2023/03/19 02:40:52;;;;;;;2.92;2.72;;;;;;;;;;5097586;28;20203;-59
2023/03/19 02:43:21;;;;;;;2.97;2.67;;;;;;;;;;5096954;28;20211;-59
2023/03/19 02:45:48;;;;;;;3.10;2.90;;;;;;;;;;5097597;28;20297;-59
2023/03/19 02:48:16;;;;;;;3.08;2.85;;;;;;;;;;5097726;28;20529;-59
2023/03/19 02:50:43;;;;;;;2.97;2.78;;;;;;;;;;5097089;28;20204;-59
2023/03/19 02:53:11;;;;;;;2.83;2.63;;;;;;;;;;5096934;28;20447;-59
2023/03/19 02:55:39;;;;;;;3.13;2.90;;;;;;;;;;5097640;28;20227;-59
2023/03/19 02:58:07;;;;;;;3.38;3.13;;;;;;;;;;5097151;28;20204;-59
2023/03/19 03:00:36;;;;;;;3.30;3.00;;;;;;;;;;5096834;28;20203;-59
2023/03/19 03:03:03;;;;;;;3.08;2.88;;;;;;;;;;5097058;28;20203;-59
2023/03/19 03:05:31;;;;;;;3.00;2.80;;;;;;;;;;5096919;28;20203;-59
2023/03/19 03:07:59;;;;;;;2.80;2.60;;;;;;;;;;5097333;28;20204;-59
2023/03/19 03:10:27;;;;;;;2.97;2.78;;;;;;;;;;5097126;28;20467;-59
2023/03/19 03:12:55;;;;;;;3.00;2.78;;;;;;;;;;5096789;28;20257;-59
2023/03/19 03:15:22;;;;;;;3.38;3.08;;;;;;;;;;5097142;28;20208;-59
2023/03/19 03:17:51;;;;;;;3.42;2.72;;;;;;;;;;5096427;28;20203;-59
2023/03/19 03:20:19;;;;;;;3.08;2.88;;;;;;;;;;5097118;28;20238;-59
2023/03/19 03:22:47;;;;;;;3.00;2.80;;;;;;;;;;5097473;28;20215;-59
2023/03/19 03:25:15;;;;;;;3.13;2.92;;;;;;;;;;5097126;28;20253;-59
2023/03/19 03:27:43;;;;;;;2.90;2.70;;;;;;;;;;5097052;28;20195;-59
2023/03/19 03:30:11;;;;;;;3.10;2.90;;;;;;;;;;5097026;28;20203;-59
2023/03/19 03:32:39;;;;;;;3.15;2.90;;;;;;;;;;5098022;28;20212;-59
2023/03/19 03:35:09;;;;;;;3.35;3.10;;;;;;;;;;5100540;28;20203;-59
2023/03/19 03:37:38;;;;;;;2.90;2.70;;;;;;;;;;5100029;28;20247;-59
2023/03/19 03:40:08;;;;;;;3.10;2.85;;;;;;;;;;5100027;28;20203;-59
2023/03/19 03:42:36;;;;;;;3.30;2.95;;;;;;;;;;5100025;28;20204;-59
2023/03/19 03:45:04;;;;;;;3.30;3.00;;;;;;;;;;5100300;28;20246;-59
2023/03/19 03:47:32;;;;;;;3.00;2.80;;;;;;;;;;5100224;28;20206;-59
2023/03/19 03:50:00;;;;;;;2.95;2.75;;;;;;;;;;5100293;28;20250;-59
2023/03/19 03:52:30;;;;;;;2.75;2.55;;;;;;;;;;5099988;28;20235;-59
2023/03/19 03:54:58;;;;;;;3.05;2.85;;;;;;;;;;5099617;28;20265;-59
2023/03/19 03:57:26;;;;;;;3.38;3.08;;;;;;;;;;5100245;28;20318;-59
2023/03/19 03:59:53;;;;;;;3.40;3.10;;;;;;;;;;5100091;28;20203;-59
2023/03/19 04:02:21;;;;;;;3.20;3.00;;;;;;;;;;5100262;28;20306;-59
2023/03/19 04:04:49;;;;;;;3.30;2.80;;;;;;;;;;5099782;28;20597;-59
2023/03/19 04:07:17;;;;;;;3.22;3.00;;;;;;;;;;5100425;28;20200;-59
2023/03/19 04:09:46;;;;;;;3.42;3.13;;;;;;;;;;5100151;28;20579;-59
2023/03/19 04:12:14;;;;;;;3.10;2.90;;;;;;;;;;5100104;28;20290;-59
2023/03/19 04:14:42;;;;;;;3.05;2.80;;;;;;;;;;5099660;28;20211;-59
2023/03/19 04:17:10;;;;;;;3.20;2.90;;;;;;;;;;5099689;28;20233;-59
2023/03/19 04:19:38;;;;;;;3.40;3.10;;;;;;;;;;5099927;28;20293;-59
2023/03/19 04:22:06;;;;;;;3.17;2.97;;;;;;;;;;5099669;28;20243;-59
2023/03/19 04:24:34;;;;;;;3.22;2.92;;;;;;;;;;5099546;28;20204;-59
2023/03/19 04:27:03;;;;;;;3.10;2.90;;;;;;;;;;5099849;28;20210;-59
2023/03/19 04:29:30;;;;;;;3.00;2.80;;;;;;;;;;5099446;28;20583;-59
2023/03/19 04:31:58;;;;;;;2.92;2.63;;;;;;;;;;5099671;28;20214;-59
2023/03/19 04:34:26;;;;;;;3.03;2.78;;;;;;;;;;5099314;28;20257;-59
2023/03/19 04:36:53;;;;;;;3.38;3.08;;;;;;;;;;5099554;28;20235;-59
2023/03/19 04:39:21;;;;;;;3.17;2.97;;;;;;;;;;5099536;28;20627;-59
2023/03/19 04:41:49;;;;;;;3.17;2.97;;;;;;;;;;5099592;28;20225;-59
2023/03/19 04:44:18;;;;;;;3.13;2.92;;;;;;;;;;5098920;28;20218;-59
2023/03/19 04:46:46;;;;;;;3.25;3.03;;;;;;;;;;5099367;28;20206;-59
2023/03/19 04:49:14;;;;;;;3.47;3.25;;;;;;;;;;5099031;28;20208;-59
2023/03/19 04:51:42;;;;;;;3.38;3.08;;;;;;;;;;5099148;28;20207;-59
2023/03/19 04:54:09;;;;;;;2.92;2.63;;;;;;;;;;5098992;28;20210;-59
2023/03/19 04:56:37;;;;;;;3.35;3.05;;;;;;;;;;5099000;28;20227;-59
2023/03/19 04:59:05;;;;;;;2.95;2.75;;;;;;;;;;5098854;28;20214;-59
2023/03/19 05:01:34;;;;;;;3.50;3.20;;;;;;;;;;5099013;28;20204;-59
2023/03/19 05:04:01;;;;;;;3.08;2.88;;;;;;;;;;5099012;28;20203;-59
2023/03/19 05:06:30;;;;;;;3.25;2.95;;;;;;;;;;5099118;28;20441;-59
2023/03/19 05:08:57;;;;;;;3.38;3.10;;;;;;;;;;5098829;28;20203;-59
2023/03/19 05:11:24;;;;;;;3.17;2.97;;;;;;;;;;5098474;28;20211;-59
2023/03/19 05:13:52;;;;;;;3.20;2.97;;;;;;;;;;5098689;28;20211;-59
2023/03/19 05:16:20;;;;;;;3.38;3.08;;;;;;;;;;5098377;28;20607;-59
2023/03/19 05:18:48;;;;;;;3.00;2.70;;;;;;;;;;5098422;28;20247;-59
2023/03/19 05:21:16;;;;;;;3.20;3.00;;;;;;;;;;5098538;28;20640;-59
2023/03/19 05:23:44;;;;;;;3.40;3.10;;;;;;;;;;5098681;28;20211;-59
2023/03/19 05:26:11;;;;;;;3.40;3.20;;;;;;;;;;5098425;28;20203;-59
2023/03/19 05:28:39;;;;;;;3.22;3.03;;;;;;;;;;5098516;28;20212;-59
2023/03/19 05:31:06;;;;;;;3.20;2.90;;;;;;;;;;5098403;28;20546;-59
2023/03/19 05:33:34;;;;;;;2.83;2.63;;;;;;;;;;5098797;28;20676;-59
2023/03/19 05:36:03;;;;;;;3.00;2.80;;;;;;;;;;5098512;28;20208;-59
2023/03/19 05:38:30;;;;;;;3.30;3.00;;;;;;;;;;5099188;28;20211;-59
2023/03/19 05:40:57;;;;;;;3.30;3.00;;;;;;;;;;5097952;28;20274;-59
2023/03/19 05:43:26;;;;;;;2.97;2.78;;;;;;;;;;5097955;28;20203;-59
2023/03/19 05:45:53;;;;;;;3.30;3.05;;;;;;;;;;5098402;28;20587;-59
2023/03/19 05:48:21;;;;;;;3.10;2.80;;;;;;;;;;5098573;28;20241;-59
2023/03/19 05:50:48;;;;;;;2.95;2.72;;;;;;;;;;5098245;28;20211;-59
2023/03/19 05:53:17;;;;;;;3.05;2.85;;;;;;;;;;5097644;28;20203;-59
2023/03/19 05:55:44;;;;;;;3.13;2.90;;;;;;;;;;5097332;28;20211;-59
2023/03/19 05:58:12;;;;;;;3.00;2.80;;;;;;;;;;5098112;28;20235;-59
2023/03/19 06:00:39;;;;;;;3.33;3.13;;;;;;;;;;5097812;28;20594;-59
2023/03/19 06:03:07;;;;;;;3.40;3.20;;;;;;;;;;5097776;28;20526;-59
2023/03/19 06:05:34;;;;;;;3.10;2.90;;;;;;;;;;5098065;28;20300;-59
2023/03/19 06:08:02;;;;;;;3.00;2.80;;;;;;;;;;5097509;28;20200;-59
2023/03/19 06:10:30;;;;;;;3.22;3.03;;;;;;;;;;5097516;28;20211;-59
2023/03/19 06:12:58;;;;;;;2.97;2.78;;;;;;;;;;5098076;28;20227;-59
2023/03/19 06:15:25;;;;;;;3.10;2.90;;;;;;;;;;5097998;28;20210;-59
2023/03/19 06:17:52;;;;;;;3.60;3.30;;;;;;;;;;5097567;28;20238;-59
2023/03/19 06:20:20;;;;;;;2.95;2.67;;;;;;;;;;5097264;28;20823;-59
2023/03/19 06:22:47;;;;;;;3.25;2.95;;;;;;;;;;5097606;28;20212;-59
2023/03/19 06:25:15;;;;;;;3.47;3.17;;;;;;;;;;5097753;28;20211;-59
2023/03/19 06:27:44;;;;;;;3.00;2.80;;;;;;;;;;5097624;28;20362;-59
2023/03/19 06:30:11;;;;;;;3.10;2.88;;;;;;;;;;5097117;28;20525;-59
2023/03/19 06:32:40;;;;;;;3.40;3.10;;;;;;;;;;5096447;28;20203;-59
2023/03/19 06:35:09;;;;;;;3.20;2.97;;;;;;;;;;5097365;28;20212;-59
2023/03/19 06:37:36;;;;;;;3.22;3.03;;;;;;;;;;5097144;28;20219;-59
2023/03/19 06:40:04;;;;;;;3.30;3.00;;;;;;;;;;5097458;28;20207;-59
2023/03/19 06:42:32;;;;;;;2.95;2.75;;;;;;;;;;5097057;28;20563;-59
2023/03/19 06:45:01;;;;;;;3.40;3.10;;;;;;;;;;5097539;28;20204;-59
2023/03/19 06:47:28;;;;;;;3.58;3.28;;;;;;;;;;5097258;28;20207;-58
2023/03/19 06:49:56;;;;;;;3.15;2.95;;;;;;;;;;5096975;28;20204;-58
2023/03/19 06:52:23;;;;;;;3.30;3.10;;;;;;;;;;5097342;28;20218;-58
2023/03/19 06:54:51;;;;;;;2.83;2.63;;;;;;;;;;5097432;28;20204;-58
2023/03/19 06:57:18;;;;;;;3.10;2.90;;;;;;;;;;5096942;28;20250;-58
2023/03/19 06:59:46;;;;;;;3.15;2.95;;;;;;;;;;5097141;28;20574;-58
2023/03/19 07:02:15;;;;;;;3.08;2.88;;;;;;;;;;5096984;28;20218;-58
2023/03/19 07:04:43;;;;;;;3.25;3.05;;;;;;;;;;5096538;28;20215;-58
2023/03/19 07:07:10;;;;;;;3.17;2.90;;;;;;;;;;5099012;28;20586;-58
2023/03/19 07:09:37;;;;;;;2.70;2.50;;;;;;;;;;5100854;28;20546;-58
2023/03/19 07:12:05;;;;;;;3.10;2.90;;;;;;;;;;5101163;28;20208;-58
2023/03/19 07:14:32;;;;;;;3.50;3.20;;;;;;;;;;5100781;28;20211;-58
2023/03/19 07:17:00;;;;;;;3.13;2.92;;;;;;;;;;5100252;28;20625;-58
2023/03/19 07:19:28;;;;;;;3.00;2.80;;;;;;;;;;5100437;28;20536;-58
2023/03/19 07:21:56;;;;;;;3.28;3.08;;;;;;;;;;5100802;28;20211;-58
2023/03/19 07:24:23;;;;;;;3.30;3.00;;;;;;;;;;5100511;28;20203;-58
2023/03/19 07:26:51;;;;;;;3.17;2.90;;;;;;;;;;5101150;28;20572;-58
2023/03/19 07:29:18;;;;;;;3.10;2.90;;;;;;;;;;5100200;28;20210;-58
2023/03/19 07:31:45;;;;;;;3.15;2.95;;;;;;;;;;5100566;28;20216;-58
2023/03/19 07:34:13;;;;;;;3.30;3.10;;;;;;;;;;5100582;28;20214;-58
2023/03/19 07:36:41;;;;;;;3.03;2.83;;;;;;;;;;5100408;28;20272;-58
2023/03/19 07:39:09;;;;;;;2.65;2.45;;;;;;;;;;5100040;28;20211;-58
2023/03/19 07:41:37;;;;;;;3.17;2.88;;;;;;;;;;5099747;28;20214;-58
2023/03/19 07:44:04;;;;;;;3.22;3.00;;;;;;;;;;5099354;28;20203;-58
2023/03/19 07:46:31;;;;;;;3.30;3.08;;;;;;;;;;5099895;28;20203;-59
2023/03/19 07:48:59;;;;;;;3.00;2.80;;;;;;;;;;5100220;28;20211;-59
2023/03/19 07:51:26;;;;;;;2.90;2.70;;;;;;;;;;5099983;28;20314;-59
2023/03/19 07:53:55;;;;;;;2.90;2.70;;;;;;;;;;5100000;28;20268;-59
2023/03/19 07:56:22;;;;;;;3.10;2.90;;;;;;;;;;5100199;28;20211;-59
2023/03/19 07:58:50;;;;;;;3.33;3.10;;;;;;;;;;5099771;28;20235;-59
2023/03/19 08:01:17;;;;;;;3.40;3.10;;;;;;;;;;5099132;28;20203;-59
2023/03/19 08:03:47;;;;;;;3.10;2.90;;;;;;;;;;5099152;28;20203;-59
2023/03/19 08:06:15;;;;;;;3.17;2.88;;;;;;;;;;5099095;28;20243;-59
2023/03/19 08:08:42;;;;;;;3.05;2.85;;;;;;;;;;5099243;28;20210;-59
2023/03/19 08:11:11;;;;;;;3.25;2.95;;;;;;;;;;5099805;28;20214;-59
2023/03/19 08:13:38;;;;;;;3.20;3.00;;;;;;;;;;5099445;28;20203;-59
2023/03/19 08:16:05;;;;;;;3.08;2.88;;;;;;;;;;5099135;28;20504;-59
2023/03/19 08:18:33;;;;;;;3.00;2.80;;;;;;;;;;5098181;28;20479;-59
2023/03/19 08:21:00;;;;;;;3.38;3.17;;;;;;;;;;5099425;28;20211;-59
2023/03/19 08:23:28;;;;;;;3.95;2.90;;;;;;;;;;5099186;28;20231;-59
2023/03/19 08:25:55;;;;;;;3.70;3.10;;;;;;;;;;5099295;28;20203;-59
2023/03/19 08:28:24;;;;;;;2.92;2.72;;;;;;;;;;5098900;28;20282;-59
2023/03/19 08:30:52;;;;;;;2.90;2.70;;;;;;;;;;5099441;28;20318;-59
2023/03/19 08:33:19;;;;;;;3.40;3.10;;;;;;;;;;5098805;28;20593;-59
2023/03/19 08:35:47;;;;;;;3.28;2.97;;;;;;;;;;5098981;28;20214;-59
2023/03/19 08:38:14;;;;;;;2.90;2.58;;;;;;;;;;5098834;28;20696;-59
2023/03/19 08:40:42;;;;;;;3.47;3.17;;;;;;;;;;5098238;28;20208;-59
2023/03/19 08:43:09;;;;;;;3.20;2.90;;;;;;;;;;5099012;28;20203;-59
2023/03/19 08:45:38;;;;;;;3.25;2.92;;;;;;;;;;5098805;28;20214;-59
2023/03/19 08:48:05;;;;;;;3.17;2.97;;;;;;;;;;5098956;28;20203;-59
2023/03/19 08:50:32;;;;;;;3.47;3.17;;;;;;;;;;5099001;28;20578;-59
2023/03/19 08:53:00;;;;;;;3.22;3.03;;;;;;;;;;5098479;28;20207;-59
2023/03/19 08:55:27;;;;;;;3.45;3.15;;;;;;;;;;5098057;28;20601;-59
2023/03/19 08:57:54;;;;;;;3.28;2.97;;;;;;;;;;5097895;28;20227;-59
2023/03/19 09:00:22;;;;;;;3.30;3.00;;;;;;;;;;5098422;28;20214;-59
2023/03/19 09:02:51;;;;;;;3.88;3.13;;;;;;;;;;5097833;28;20203;-59
2023/03/19 09:05:21;;;;;;;3.13;2.92;;;;;;;;;;5098249;28;20218;-59
2023/03/19 09:07:48;;;;;;;4.50;3.17;;;;;;;;;;5097569;28;20541;-59
2023/03/19 09:10:15;;;;;;;3.20;3.00;;;;;;;;;;5097663;28;20203;-59
2023/03/19 09:12:43;;;;;;;3.45;3.15;;;;;;;;;;5097212;28;20528;-59
2023/03/19 09:15:10;;;;;;;3.35;3.08;;;;;;;;;;5096590;28;20204;-59
2023/03/19 09:17:38;;;;;;;3.13;2.83;;;;;;;;;;5097123;28;20230;-59
2023/03/19 09:20:08;;;;;;;3.78;3.10;;;;;;;;;;5097038;28;20493;-59
2023/03/19 09:22:35;;;;;;;3.53;3.22;;;;;;;;;;5097451;28;20292;-59
2023/03/19 09:25:03;;;;;;;3.25;2.97;;;;;;;;;;5097453;28;20204;-59
2023/03/19 09:27:30;;;;;;;3.70;3.40;;;;;;;;;;5097660;28;20204;-59
2023/03/19 09:29:58;;;;;;;3.00;2.80;;;;;;;;;;5096358;28;20207;-59
2023/03/19 09:32:25;;;;;;;3.10;2.90;;;;;;;;;;5096140;28;20214;-59
2023/03/19 09:34:53;;;;;;;3.28;2.97;;;;;;;;;;5094906;28;20200;-59
2023/03/19 09:37:21;;;;;;;3.22;2.97;;;;;;;;;;5096044;28;20210;-59
2023/03/19 09:39:49;;;;;;;3.40;3.13;;;;;;;;;;5095926;28;20219;-59
2023/03/19 09:42:23;;;;;;;3.42;3.10;;;;;;;;;;5096904;28;20208;-59
2023/03/19 09:44:52;;;;;;;3.33;3.03;;;;;;;;;;5096453;28;20194;-59
2023/03/19 09:47:25;;;;;;;3.17;2.97;;;;;;;;;;5097048;28;20211;-59
2023/03/19 09:49:54;;;;;;;3.70;2.97;;;;;;;;;;5096658;28;20628;-59
2023/03/19 09:52:28;;;;;;;3.13;2.90;;;;;;;;;;5096442;28;20611;-59
2023/03/19 09:54:57;;;;;;;3.50;3.20;;;;;;;;;;5095869;28;20238;-59
2023/03/19 09:57:28;;;;;;;3.17;2.88;;;;;;;;;;5096377;28;20200;-59
2023/03/19 09:59:55;;;;;;;3.10;2.80;;;;;;;;;;5096520;28;20199;-59
2023/03/19 10:02:32;;;;;;;3.10;2.90;;;;;;;;;;5096339;28;20211;-59
2023/03/19 10:05:06;;;;;;;3.25;2.95;;;;;;;;;;5096594;28;20203;-59
2023/03/19 10:07:48;;;;;;;3.05;2.85;;;;;;;;;;5096076;28;20209;-59
2023/03/19 10:10:22;;;;;;;3.30;2.90;;;;;;;;;;5096495;28;20613;-59
2023/03/19 10:12:56;;;;;;;3.47;3.17;;;;;;;;;;5096366;28;20204;-59
2023/03/19 10:15:25;;;;;;;3.55;3.25;;;;;;;;;;5096384;28;20214;-59
2023/03/19 10:18:04;;;;;;;3.38;3.08;;;;;;;;;;5096335;28;20223;-59
2023/03/19 10:20:39;;;;;;;3.28;3.00;;;;;;;;;;5095877;28;20324;-59
2023/03/19 10:23:15;;;;;;;4.40;3.30;;;;;;;;;;5095498;28;20629;-59
2023/03/19 10:25:43;;;;;;;3.40;3.10;;;;;;;;;;5096660;28;20226;-59
2023/03/19 10:28:13;;;;;;;3.50;3.20;;;;;;;;;;5095672;28;20200;-59
2023/03/19 10:30:41;;;;;;;3.55;3.22;;;;;;;;;;5095546;28;20203;-59
2023/03/19 10:33:15;;;;;;;3.42;3.13;;;;;;;;;;5095250;28;20614;-59
2023/03/19 10:35:44;;;;;;;5.35;3.50;;;;;;;;;;5095666;28;20203;-59
2023/03/19 10:38:20;;;;;;;3.40;3.10;;;;;;;;;;5095081;28;20661;-59
2023/03/19 10:40:52;;;;;;;3.80;3.50;;;;;;;;;;5095353;28;20215;-59
2023/03/19 10:43:21;;;;;;;3.88;3.47;;;;;;;;;;5095451;28;20211;-59
2023/03/19 10:45:49;;;;;;;3.83;3.53;;;;;;;;;;5096110;28;20214;-59
2023/03/19 10:48:17;;;;;;;4.13;3.72;;;;;;;;;;5096313;28;20202;-59
2023/03/19 10:50:49;;;;;;;3.47;3.17;;;;;;;;;;5095656;28;20606;-59
2023/03/19 10:53:28;;;;;;;5.30;3.75;;;;;;;;;;5095357;28;20500;-59
2023/03/19 10:55:56;;;;;;;3.50;3.20;;;;;;;;;;5096116;28;20210;-59
2023/03/19 10:58:25;;;;;;;3.97;3.53;;;;;;;;;;5096335;28;20230;-59
2023/03/19 11:00:56;;;;;;;3.60;3.30;;;;;;;;;;5095770;28;20204;-59
2023/03/19 11:03:32;;;;;;;3.80;3.40;;;;;;;;;;5095153;28;20205;-59
2023/03/19 11:06:07;;;;;;;3.67;3.30;;;;;;;;;;5095790;28;20218;-59
2023/03/19 11:08:37;;;;;;;3.50;3.20;;;;;;;;;;5095705;28;20210;-59
2023/03/19 11:11:05;;;;;;;3.50;3.05;;;;;;;;;;5095800;28;20203;-59
2023/03/19 11:13:35;;;;;;;3.45;3.15;;;;;;;;;;5094801;28;20200;-59
2023/03/19 11:16:03;;;;;;;3.40;3.10;;;;;;;;;;5095691;28;20222;-59
2023/03/19 11:18:32;;;;;;;3.72;2.78;;;;;;;;;;5075628;28;20724;-59
2023/03/19 11:21:01;;;;;;;3.60;3.10;;;;;;;;;;5075141;28;20277;-59
2023/03/19 11:23:29;;;;;;;3.10;2.80;;;;;;;;;;5075388;28;20257;-59
2023/03/19 11:26:01;;;;;;;3.17;2.88;;;;;;;;;;5075626;28;20603;-59
2023/03/19 11:28:32;;;;;;;2.95;2.70;;;;;;;;;;5075133;28;20196;-59
2023/03/19 11:31:01;;;;;;;2.50;2.30;;;;;;;;;;5075703;28;20212;-59
2023/03/19 11:34:02;;;;;;;2.40;2.20;;;;;;;;;;5075946;28;20204;-59
2023/03/19 11:36:31;;;;;;;3.25;2.90;;;;;;;;;;4994224;28;20207;-59
2023/03/19 11:39:05;;;;;;;5.55;2.95;;;;;;;;;;4994037;28;20253;-59
2023/03/19 11:41:43;;;;;;;3.67;2.80;;;;;;;;;;5035871;28;20212;-59
2023/03/19 11:44:14;;;;;;;2.65;2.45;;;;;;;;;;5074834;28;20543;-59
2023/03/19 11:46:45;;;;;;;3.70;2.97;;;;;;;;;;5073801;28;20244;-59
2023/03/19 11:49:29;;;;;;;3.15;2.85;;;;;;;;;;5075227;28;20274;-59
2023/03/19 11:52:01;;;;;;;3.40;2.67;;;;;;;;;;5074498;28;20212;-59
2023/03/19 11:54:35;;;;;;;3.30;3.00;;;;;;;;;;5076644;28;20261;-59
2023/03/19 11:57:05;;;;;;;2.60;2.40;;;;;;;;;;5078420;28;20208;-59
2023/03/19 11:59:43;;;;;;;3.90;3.05;;;;;;;;;;5098486;28;20230;-59
2023/03/19 12:02:29;;;;;;;3.85;3.08;;;;;;;;;;5079507;28;20207;-59
2023/03/19 12:05:04;;;;;;;4.15;2.83;;;;;;;;;;5077074;28;20200;-59
2023/03/19 12:07:34;;;;;;;3.88;3.00;;;;;;;;;;5077374;28;20216;-59
2023/03/19 12:10:07;;;;;;;4.47;3.50;;;;;;;;;;5078450;28;20262;-59
2023/03/19 12:12:40;;;;;;;4.40;3.20;;;;;;;;;;5078005;28;20223;-59
2023/03/19 12:15:14;;;;;;;3.35;3.05;;;;;;;;;;5078375;28;20215;-59
2023/03/19 12:17:48;;;;;;;4.85;3.38;;;;;;;;;;5077839;28;20470;-59
2023/03/19 12:20:23;;;;;;;4.13;3.30;;;;;;;;;;5077130;28;20252;-59
2023/03/19 12:22:58;;;;;;;4.38;3.33;;;;;;;;;;5077091;28;20209;-59
2023/03/19 12:25:29;;;;;;;4.03;3.63;;;;;;;;;;5077383;28;20613;-59
2023/03/19 12:28:02;;;;;;;5.88;3.80;;;;;;;;;;5077942;28;20212;-59
2023/03/19 12:30:35;;;;;;;6.47;3.95;;;;;;;;;;5077241;28;20211;-59
2023/03/19 12:33:11;;;;;;;5.80;4.03;;;;;;;;;;5077615;28;20234;-59
2023/03/19 12:35:40;;;;;;;5.22;3.75;;;;;;;;;;5078175;28;20227;-59
2023/03/19 12:38:11;;;;;;;3.90;3.08;;;;;;;;;;5077930;28;20201;-59
2023/03/19 12:40:42;;;;;;;5.38;3.83;;;;;;;;;;5090987;28;20227;-59
2023/03/19 12:43:17;;;;;;;3.85;3.25;;;;;;;;;;5097857;28;20215;-59
2023/03/19 12:45:46;;;;;;;4.65;3.22;;;;;;;;;;5098161;28;20211;-59
2023/03/19 12:48:16;;;;;;;5.47;3.50;;;;;;;;;;5098034;28;20211;-59
2023/03/19 12:50:44;;;;;;;5.45;3.53;;;;;;;;;;5097535;28;20239;-59
2023/03/19 12:53:17;;;;;;;4.20;3.58;;;;;;;;;;5097143;28;20210;-59
2023/03/19 12:55:46;;;;;;;4.88;3.47;;;;;;;;;;5097533;28;20302;-59
2023/03/19 12:58:19;;;;;;;4.55;3.10;;;;;;;;;;5097389;28;20228;-59
2023/03/19 13:00:50;;;;;;;4.40;3.38;;;;;;;;;;5097715;28;20235;-59
2023/03/19 13:03:18;;;;;;;5.80;3.45;;;;;;;;;;5097382;28;20218;-59
2023/03/19 13:05:47;;;;;;;4.00;3.22;;;;;;;;;;5097018;28;20228;-59
2023/03/19 13:08:17;;;;;;;4.68;3.30;;;;;;;;;;5097349;28;20606;-59
2023/03/19 13:10:45;;;;;;;5.82;3.50;;;;;;;;;;5097613;28;20568;-59
2023/03/19 13:13:22;;;;;;;6.05;3.58;;;;;;;;;;5097593;28;20195;-59
2023/03/19 13:15:53;;;;;;;4.75;3.35;;;;;;;;;;5097909;28;20204;-59
2023/03/19 13:18:26;;;;;;;5.05;3.22;;;;;;;;;;5097230;28;20253;-59
2023/03/19 13:21:00;;;;;;;4.70;3.28;;;;;;;;;;5096536;28;20236;-59
2023/03/19 13:23:31;;;;;;;5.38;3.40;;;;;;;;;;5096379;28;20226;-59
2023/03/19 13:25:59;;;;;;;4.63;3.45;;;;;;;;;;5096592;28;20210;-59
2023/03/19 13:28:30;;;;;;;3.67;3.33;;;;;;;;;;5096374;28;20203;-59
2023/03/19 13:33:34;;;;;;;3.95;3.08;;;;;;;;;;6019528;22;20223;-58
2023/03/19 13:36:03;;;;;;;4.70;3.03;;;;;;;;;;5096792;28;20751;-58
2023/03/19 13:38:35;;;;;;;4.13;3.05;;;;;;;;;;5096500;28;20206;-58
2023/03/19 13:41:03;;;;;;;4.50;3.05;;;;;;;;;;5095834;28;20211;-58
2023/03/19 13:43:45;;;;;;;4.68;3.08;;;;;;;;;;5096399;28;20214;-58
2023/03/19 13:46:39;;;;;;;4.60;3.15;;;;;;;;;;5096067;28;20206;-58
2023/03/19 13:49:24;;;;;;;4.10;3.33;;;;;;;;;;5038090;28;20202;-58
2023/03/19 13:57:35;;;;;;;4.07;3.35;;;;;;;;;;5093284;28;20200;-58
2023/03/19 14:00:21;;;;;;;3.42;3.13;;;;;;;;;;5095770;28;20234;-58
2023/03/19 14:02:50;;;;;;;3.58;2.95;;;;;;;;;;5095831;28;20207;-58
2023/03/19 14:05:21;;;;;;;4.20;3.15;;;;;;;;;;5095997;28;20204;-58
2023/03/19 14:07:51;;;;;;;3.90;3.00;;;;;;;;;;5096235;28;20200;-58
2023/03/19 14:10:21;;;;;;;3.58;2.85;;;;;;;;;;5095978;28;20225;-58
2023/03/19 14:12:49;;;;;;;3.85;2.80;;;;;;;;;;5095225;28;20667;-58
2023/03/19 14:15:19;;;;;;;4.40;2.80;;;;;;;;;;5095629;28;20305;-58
2023/03/19 14:17:55;;;;;;;3.67;2.70;;;;;;;;;;5094928;28;20266;-58
2023/03/19 14:20:25;;;;;;;4.00;2.60;;;;;;;;;;5094988;28;20227;-59
2023/03/19 14:22:57;;;;;;;2.72;2.50;;;;;;;;;;5094773;28;20211;-59
2023/03/19 14:25:26;;;;;;;3.17;2.75;;;;;;;;;;5094523;28;20309;-58
2023/03/19 14:27:55;;;;;;;2.90;2.60;;;;;;;;;;5094855;28;20205;-58
2023/03/19 14:30:30;;;;;;;4.72;2.83;;;;;;;;;;5095161;28;20207;-58
2023/03/19 14:33:01;;;;;;;3.25;2.70;;;;;;;;;;5094496;28;20207;-59
2023/03/19 14:35:33;;;;;;;3.47;2.60;;;;;;;;;;5095658;28;20215;-59
2023/03/19 14:38:01;;;;;;;3.10;2.58;;;;;;;;;;5095058;28;20204;-59
2023/03/19 14:40:33;;;;;;;2.88;2.50;;;;;;;;;;5094817;28;20514;-58
2023/03/19 14:43:03;;;;;;;2.85;2.28;;;;;;;;;;5095233;28;20203;-58
2023/03/19 14:45:40;;;;;;;2.70;2.30;;;;;;;;;;5094677;28;20201;-58
2023/03/19 14:48:13;;;;;;;3.42;2.35;;;;;;;;;;5096011;28;20456;-58
2023/03/19 14:50:55;;;;;;;2.42;2.22;;;;;;;;;;5095682;28;20234;-58
2023/03/19 14:53:25;;;;;;;3.65;2.38;;;;;;;;;;5091224;28;20207;-58
2023/03/19 14:55:53;;;;;;;2.60;2.20;;;;;;;;;;5095048;28;20685;-58
2023/03/19 14:58:21;;;;;;;2.55;2.30;;;;;;;;;;5095794;28;20203;-59
2023/03/19 15:00:50;;;;;;;2.88;2.40;;;;;;;;;;5095216;28;20228;-59
2023/03/19 15:03:22;;;;;;;2.47;2.10;;;;;;;;;;5095290;28;20210;-59
2023/03/19 15:05:51;;;;;;;3.15;2.30;;;;;;;;;;5095233;28;20299;-58
2023/03/19 15:08:22;;;;;;;2.70;2.30;;;;;;;;;;5095390;28;20733;-58